Silver Lake, Michigan
Current Conditions -  °F | °C
As of 5:35 AM on Thursday 23 Oct 2014 (Local Time) from KLDM Reporting Station
Haze Haze  
Wind Chill: 30°   Ceiling: Unl
Heat Index: 34°   Visibility: 5mi
Dew Point: 33°   Wind: 5mph
Humidity: 97%   Direction: 130°SE
Pressure: 30.23"   Gusts: NA
Location:  43.6851°N, 86.4584°W
Report Text: KLDM 230935Z AUTO 13004KT 5SM BR CLR 01/01 A3023 RMK AO2 T00120007
Loading
Personal Weather Stations






























Interactive Weather Map New forecast layout! Learn more

10-Day Weather Forecast

Advertisements
Track Severe Weather on mobile